sensor_id;sensor_type;location;lat;lon;timestamp;pressure;altitude;pressure_sealevel;temperature;humidity
54329;BME280;40710;51.120;13.136;2023-05-22T00:01:50;99396.75;;;20.98;54.75
54329;BME280;40710;51.120;13.136;2023-05-22T00:04:15;99389.69;;;21.06;54.91
54329;BME280;40710;51.120;13.136;2023-05-22T00:06:44;99393.78;;;21.01;54.72
54329;BME280;40710;51.120;13.136;2023-05-22T00:09:09;99396.06;;;20.95;54.92
54329;BME280;40710;51.120;13.136;2023-05-22T00:11:33;99391.91;;;20.83;55.17
54329;BME280;40710;51.120;13.136;2023-05-22T00:13:59;99383.41;;;20.98;54.83
54329;BME280;40710;51.120;13.136;2023-05-22T00:16:24;99386.22;;;20.96;54.88
54329;BME280;40710;51.120;13.136;2023-05-22T00:18:48;99396.31;;;20.65;55.58
54329;BME280;40710;51.120;13.136;2023-05-22T00:21:13;99386.56;;;20.83;55.38
54329;BME280;40710;51.120;13.136;2023-05-22T00:23:37;99386.34;;;20.94;54.91
54329;BME280;40710;51.120;13.136;2023-05-22T00:26:02;99383.34;;;20.80;55.06
54329;BME280;40710;51.120;13.136;2023-05-22T00:28:27;99385.75;;;20.73;55.38
54329;BME280;40710;51.120;13.136;2023-05-22T00:30:52;99389.63;;;20.41;56.49
54329;BME280;40710;51.120;13.136;2023-05-22T00:33:16;99385.50;;;20.56;56.00
54329;BME280;40710;51.120;13.136;2023-05-22T00:35:41;99376.69;;;20.36;56.34
54329;BME280;40710;51.120;13.136;2023-05-22T00:38:07;99387.84;;;19.93;57.85
54329;BME280;40710;51.120;13.136;2023-05-22T00:40:32;99381.78;;;19.71;57.86
54329;BME280;40710;51.120;13.136;2023-05-22T00:42:57;99374.06;;;20.07;56.78
54329;BME280;40710;51.120;13.136;2023-05-22T00:45:21;99371.84;;;20.02;56.96
54329;BME280;40710;51.120;13.136;2023-05-22T00:47:47;99377.44;;;19.90;57.07
54329;BME280;40710;51.120;13.136;2023-05-22T00:50:12;99383.38;;;19.93;56.88
54329;BME280;40710;51.120;13.136;2023-05-22T00:52:40;99378.69;;;20.05;57.12
54329;BME280;40710;51.120;13.136;2023-05-22T00:55:06;99374.38;;;20.04;56.32
54329;BME280;40710;51.120;13.136;2023-05-22T00:57:32;99374.94;;;19.88;57.41
54329;BME280;40710;51.120;13.136;2023-05-22T01:00:02;99376.44;;;19.71;57.67
54329;BME280;40710;51.120;13.136;2023-05-22T01:02:28;99379.66;;;19.65;58.15
54329;BME280;40710;51.120;13.136;2023-05-22T01:04:57;99385.28;;;19.62;58.00
54329;BME280;40710;51.120;13.136;2023-05-22T01:07:22;99379.94;;;19.62;58.15
54329;BME280;40710;51.120;13.136;2023-05-22T01:09:47;99380.50;;;19.56;58.76
54329;BME280;40710;51.120;13.136;2023-05-22T01:12:37;99380.34;;;19.57;58.62
54329;BME280;40710;51.120;13.136;2023-05-22T01:15:31;99384.13;;;19.45;58.60
54329;BME280;40710;51.120;13.136;2023-05-22T01:18:26;99384.72;;;19.58;58.92
54329;BME280;40710;51.120;13.136;2023-05-22T01:24:22;99395.28;;;19.19;59.50
54329;BME280;40710;51.120;13.136;2023-05-22T01:32:33;99397.81;;;18.59;60.33
54329;BME280;40710;51.120;13.136;2023-05-22T01:35:00;99390.91;;;18.78;59.57
54329;BME280;40710;51.120;13.136;2023-05-22T01:37:26;99391.09;;;18.86;59.47
54329;BME280;40710;51.120;13.136;2023-05-22T01:39:53;99393.66;;;18.66;59.82
54329;BME280;40710;51.120;13.136;2023-05-22T01:42:19;99392.94;;;18.85;59.72
54329;BME280;40710;51.120;13.136;2023-05-22T01:44:44;99383.97;;;18.86;59.61
54329;BME280;40710;51.120;13.136;2023-05-22T01:47:08;99386.91;;;18.93;59.49
54329;BME280;40710;51.120;13.136;2023-05-22T01:49:34;99379.75;;;18.84;59.77
54329;BME280;40710;51.120;13.136;2023-05-22T01:52:25;99379.63;;;18.85;60.05
54329;BME280;40710;51.120;13.136;2023-05-22T01:54:54;99384.25;;;18.93;59.37
54329;BME280;40710;51.120;13.136;2023-05-22T01:57:27;99380.53;;;18.75;60.04
54329;BME280;40710;51.120;13.136;2023-05-22T02:00:08;99384.50;;;18.59;60.02
54329;BME280;40710;51.120;13.136;2023-05-22T02:02:41;99381.97;;;18.58;59.97
54329;BME280;40710;51.120;13.136;2023-05-22T02:05:09;99377.06;;;19.24;58.28
54329;BME280;40710;51.120;13.136;2023-05-22T02:07:38;99381.31;;;18.86;59.13
54329;BME280;40710;51.120;13.136;2023-05-22T02:10:04;99390.28;;;18.64;60.38
54329;BME280;40710;51.120;13.136;2023-05-22T02:12:30;99383.88;;;18.46;60.84
54329;BME280;40710;51.120;13.136;2023-05-22T02:14:55;99380.47;;;18.34;60.56
54329;BME280;40710;51.120;13.136;2023-05-22T02:17:20;99385.59;;;18.26;61.24
54329;BME280;40710;51.120;13.136;2023-05-22T02:19:45;99376.75;;;18.46;60.49
54329;BME280;40710;51.120;13.136;2023-05-22T02:22:09;99383.25;;;18.11;61.38
54329;BME280;40710;51.120;13.136;2023-05-22T02:24:37;99370.00;;;18.73;58.80
54329;BME280;40710;51.120;13.136;2023-05-22T02:27:01;99377.47;;;18.48;60.19
54329;BME280;40710;51.120;13.136;2023-05-22T02:29:27;99378.13;;;18.41;60.35
54329;BME280;40710;51.120;13.136;2023-05-22T02:31:52;99367.47;;;18.71;59.45
54329;BME280;40710;51.120;13.136;2023-05-22T02:34:17;99367.09;;;18.76;59.38
54329;BME280;40710;51.120;13.136;2023-05-22T02:36:42;99355.09;;;20.10;58.75
54329;BME280;40710;51.120;13.136;2023-05-22T02:39:07;99358.41;;;19.15;56.98
54329;BME280;40710;51.120;13.136;2023-05-22T02:41:32;99369.25;;;18.30;60.58
54329;BME280;40710;51.120;13.136;2023-05-22T02:43:56;99370.91;;;18.31;60.81
54329;BME280;40710;51.120;13.136;2023-05-22T02:46:21;99353.91;;;18.75;59.38
54329;BME280;40710;51.120;13.136;2023-05-22T02:48:45;99364.53;;;18.44;60.17
54329;BME280;40710;51.120;13.136;2023-05-22T02:51:10;99368.09;;;18.54;60.84
54329;BME280;40710;51.120;13.136;2023-05-22T02:53:35;99359.09;;;18.76;60.54
54329;BME280;40710;51.120;13.136;2023-05-22T02:56:03;99367.47;;;18.41;60.20
54329;BME280;40710;51.120;13.136;2023-05-22T02:58:28;99366.84;;;18.58;59.73
54329;BME280;40710;51.120;13.136;2023-05-22T03:00:52;99354.03;;;18.42;59.81
54329;BME280;40710;51.120;13.136;2023-05-22T03:03:17;99358.72;;;18.29;60.06
54329;BME280;40710;51.120;13.136;2023-05-22T03:05:42;99361.44;;;18.18;60.07
54329;BME280;40710;51.120;13.136;2023-05-22T03:08:06;99357.56;;;18.01;60.45
54329;BME280;40710;51.120;13.136;2023-05-22T03:10:31;99358.81;;;17.85;60.95
54329;BME280;40710;51.120;13.136;2023-05-22T03:12:55;99345.56;;;18.27;58.45
54329;BME280;40710;51.120;13.136;2023-05-22T03:15:20;99366.75;;;17.20;62.19
54329;BME280;40710;51.120;13.136;2023-05-22T03:17:45;99354.31;;;17.97;59.84
54329;BME280;40710;51.120;13.136;2023-05-22T03:20:10;99364.25;;;16.96;62.65
54329;BME280;40710;51.120;13.136;2023-05-22T03:22:34;99353.66;;;17.40;61.56
54329;BME280;40710;51.120;13.136;2023-05-22T03:24:59;99359.50;;;17.66;61.01
54329;BME280;40710;51.120;13.136;2023-05-22T03:27:23;99360.03;;;17.60;61.34
54329;BME280;40710;51.120;13.136;2023-05-22T03:29:56;99363.69;;;17.36;62.28
54329;BME280;40710;51.120;13.136;2023-05-22T03:32:21;99350.88;;;17.74;61.00
54329;BME280;40710;51.120;13.136;2023-05-22T03:34:46;99348.41;;;18.36;60.07
54329;BME280;40710;51.120;13.136;2023-05-22T03:37:10;99354.56;;;17.62;61.36
54329;BME280;40710;51.120;13.136;2023-05-22T03:39:35;99352.25;;;17.25;62.29
54329;BME280;40710;51.120;13.136;2023-05-22T03:42:00;99353.25;;;17.24;62.23
54329;BME280;40710;51.120;13.136;2023-05-22T03:44:24;99354.59;;;17.07;63.38
54329;BME280;40710;51.120;13.136;2023-05-22T03:46:49;99299.31;;;21.92;51.42
54329;BME280;40710;51.120;13.136;2023-05-22T03:49:14;99298.44;;;22.09;49.60
54329;BME280;40710;51.120;13.136;2023-05-22T03:51:38;99285.75;;;23.31;46.92
54329;BME280;40710;51.120;13.136;2023-05-22T03:54:03;99293.13;;;22.78;46.87
54329;BME280;40710;51.120;13.136;2023-05-22T03:56:27;99305.25;;;22.30;48.53
54329;BME280;40710;51.120;13.136;2023-05-22T03:58:52;99336.88;;;18.56;56.30
54329;BME280;40710;51.120;13.136;2023-05-22T04:01:16;99308.97;;;21.03;52.18
54329;BME280;40710;51.120;13.136;2023-05-22T04:03:41;99314.69;;;20.62;52.66
54329;BME280;40710;51.120;13.136;2023-05-22T04:06:06;99312.28;;;21.14;52.21
54329;BME280;40710;51.120;13.136;2023-05-22T04:08:30;99306.03;;;21.06;51.62
54329;BME280;40710;51.120;13.136;2023-05-22T04:10:55;99344.41;;;18.20;58.25
54329;BME280;40710;51.120;13.136;2023-05-22T04:13:20;99322.84;;;19.84;54.96
54329;BME280;40710;51.120;13.136;2023-05-22T04:15:44;99327.19;;;19.65;55.19
54329;BME280;40710;51.120;13.136;2023-05-22T04:18:10;99324.66;;;19.64;55.42
54329;BME280;40710;51.120;13.136;2023-05-22T04:20:35;99322.16;;;19.72;54.68
54329;BME280;40710;51.120;13.136;2023-05-22T04:23:00;99342.34;;;18.85;56.58
54329;BME280;40710;51.120;13.136;2023-05-22T04:25:24;99351.22;;;17.92;58.84
54329;BME280;40710;51.120;13.136;2023-05-22T04:27:49;99333.88;;;19.11;56.68
54329;BME280;40710;51.120;13.136;2023-05-22T04:30:14;99331.13;;;19.52;55.56
54329;BME280;40710;51.120;13.136;2023-05-22T04:32:40;99333.91;;;19.50;55.74
54329;BME280;40710;51.120;13.136;2023-05-22T04:35:05;99345.09;;;19.24;56.05
54329;BME280;40710;51.120;13.136;2023-05-22T04:37:29;99351.03;;;18.87;56.34
54329;BME280;40710;51.120;13.136;2023-05-22T04:39:55;99346.00;;;19.64;56.23
54329;BME280;40710;51.120;13.136;2023-05-22T04:42:21;99351.22;;;19.05;55.73
54329;BME280;40710;51.120;13.136;2023-05-22T04:44:46;99365.34;;;18.13;59.83
54329;BME280;40710;51.120;13.136;2023-05-22T04:47:11;99367.09;;;18.24;60.04
54329;BME280;40710;51.120;13.136;2023-05-22T04:49:37;99346.28;;;19.71;56.06
54329;BME280;40710;51.120;13.136;2023-05-22T04:52:02;99335.00;;;20.26;54.79
54329;BME280;40710;51.120;13.136;2023-05-22T04:54:28;99340.47;;;20.24;54.70
54329;BME280;40710;51.120;13.136;2023-05-22T04:56:52;99332.09;;;20.56;54.01
54329;BME280;40710;51.120;13.136;2023-05-22T04:59:17;99365.69;;;18.51;59.75
54329;BME280;40710;51.120;13.136;2023-05-22T05:01:42;99360.03;;;18.65;59.68
54329;BME280;40710;51.120;13.136;2023-05-22T05:04:08;99330.06;;;21.06;54.08
54329;BME280;40710;51.120;13.136;2023-05-22T05:06:33;99330.66;;;21.00;53.85
54329;BME280;40710;51.120;13.136;2023-05-22T05:08:57;99327.31;;;21.15;53.98
54329;BME280;40710;51.120;13.136;2023-05-22T05:11:22;99313.53;;;22.71;50.47
54329;BME280;40710;51.120;13.136;2023-05-22T05:13:46;99316.94;;;22.89;49.52
54329;BME280;40710;51.120;13.136;2023-05-22T05:16:11;99346.56;;;19.68;57.17
54329;BME280;40710;51.120;13.136;2023-05-22T05:18:36;99350.19;;;19.37;58.79
54329;BME280;40710;51.120;13.136;2023-05-22T05:21:00;99332.69;;;20.50;56.51
54329;BME280;40710;51.120;13.136;2023-05-22T05:23:25;99339.31;;;20.46;55.22
54329;BME280;40710;51.120;13.136;2023-05-22T05:25:49;99324.00;;;21.85;53.91
54329;BME280;40710;51.120;13.136;2023-05-22T05:28:14;99323.75;;;22.23;51.60
54329;BME280;40710;51.120;13.136;2023-05-22T05:30:39;99325.53;;;21.88;53.21
54329;BME280;40710;51.120;13.136;2023-05-22T05:33:04;99349.88;;;20.28;56.81
54329;BME280;40710;51.120;13.136;2023-05-22T05:35:28;99351.75;;;20.18;57.98
54329;BME280;40710;51.120;13.136;2023-05-22T05:37:53;99361.13;;;19.73;59.04
54329;BME280;40710;51.120;13.136;2023-05-22T05:40:17;99354.97;;;20.02;58.75
54329;BME280;40710;51.120;13.136;2023-05-22T05:42:42;99340.66;;;20.98;55.28
54329;BME280;40710;51.120;13.136;2023-05-22T05:45:06;99354.97;;;20.02;58.12
54329;BME280;40710;51.120;13.136;2023-05-22T05:47:31;99356.53;;;19.75;59.28
54329;BME280;40710;51.120;13.136;2023-05-22T05:49:56;99327.72;;;21.39;56.18
54329;BME280;40710;51.120;13.136;2023-05-22T05:52:21;99342.88;;;21.02;55.99
54329;BME280;40710;51.120;13.136;2023-05-22T05:54:45;99344.38;;;20.87;56.90
54329;BME280;40710;51.120;13.136;2023-05-22T05:57:11;99354.50;;;20.36;58.18
54329;BME280;40710;51.120;13.136;2023-05-22T05:59:35;99350.66;;;20.48;57.61
54329;BME280;40710;51.120;13.136;2023-05-22T06:02:00;99341.84;;;21.13;56.70
54329;BME280;40710;51.120;13.136;2023-05-22T06:04:24;99338.22;;;21.32;56.07
54329;BME280;40710;51.120;13.136;2023-05-22T06:06:51;99335.13;;;21.55;55.13
54329;BME280;40710;51.120;13.136;2023-05-22T06:09:16;99332.56;;;22.33;52.33
54329;BME280;40710;51.120;13.136;2023-05-22T06:11:40;99327.00;;;21.64;53.46
54329;BME280;40710;51.120;13.136;2023-05-22T06:14:05;99321.75;;;22.43;51.62
54329;BME280;40710;51.120;13.136;2023-05-22T06:16:31;99321.66;;;22.08;52.13
54329;BME280;40710;51.120;13.136;2023-05-22T06:18:58;99321.16;;;22.31;52.75
54329;BME280;40710;51.120;13.136;2023-05-22T06:21:23;99322.88;;;21.52;54.02
54329;BME280;40710;51.120;13.136;2023-05-22T06:23:47;99316.56;;;21.97;52.70
54329;BME280;40710;51.120;13.136;2023-05-22T06:26:13;99317.19;;;22.35;51.94
54329;BME280;40710;51.120;13.136;2023-05-22T06:28:38;99321.28;;;22.03;52.52
54329;BME280;40710;51.120;13.136;2023-05-22T06:31:03;99316.06;;;22.20;53.16
54329;BME280;40710;51.120;13.136;2023-05-22T06:33:27;99307.56;;;22.51;51.09
54329;BME280;40710;51.120;13.136;2023-05-22T06:35:52;99314.34;;;22.37;51.53
54329;BME280;40710;51.120;13.136;2023-05-22T06:38:16;99315.13;;;22.55;51.58
54329;BME280;40710;51.120;13.136;2023-05-22T06:40:41;99277.91;;;25.30;44.77
54329;BME280;40710;51.120;13.136;2023-05-22T06:43:05;99314.88;;;23.09;50.83
54329;BME280;40710;51.120;13.136;2023-05-22T06:45:30;99318.00;;;22.62;51.15
54329;BME280;40710;51.120;13.136;2023-05-22T06:47:54;99310.53;;;23.33;50.42
54329;BME280;40710;51.120;13.136;2023-05-22T06:50:20;99305.19;;;23.41;49.57
54329;BME280;40710;51.120;13.136;2023-05-22T06:52:45;99308.47;;;23.10;49.66
54329;BME280;40710;51.120;13.136;2023-05-22T06:55:09;99303.22;;;23.51;49.52
54329;BME280;40710;51.120;13.136;2023-05-22T06:57:34;99299.69;;;23.84;49.70
54329;BME280;40710;51.120;13.136;2023-05-22T06:59:59;99295.31;;;23.74;49.07
54329;BME280;40710;51.120;13.136;2023-05-22T07:02:24;99309.06;;;23.55;50.03
54329;BME280;40710;51.120;13.136;2023-05-22T07:04:49;99299.38;;;23.87;49.93
54329;BME280;40710;51.120;13.136;2023-05-22T07:07:15;99296.50;;;24.21;48.44
54329;BME280;40710;51.120;13.136;2023-05-22T07:09:40;99293.47;;;24.16;48.24
54329;BME280;40710;51.120;13.136;2023-05-22T07:12:05;99293.16;;;24.03;48.28
54329;BME280;40710;51.120;13.136;2023-05-22T07:14:29;99298.03;;;23.91;49.93
54329;BME280;40710;51.120;13.136;2023-05-22T07:16:54;99293.59;;;24.23;49.05
54329;BME280;40710;51.120;13.136;2023-05-22T07:19:24;99293.97;;;24.20;49.73
54329;BME280;40710;51.120;13.136;2023-05-22T07:21:49;99282.53;;;24.82;48.03
54329;BME280;40710;51.120;13.136;2023-05-22T07:24:14;99290.59;;;24.73;47.75
54329;BME280;40710;51.120;13.136;2023-05-22T07:26:40;99290.44;;;24.75;48.92
54329;BME280;40710;51.120;13.136;2023-05-22T07:29:09;99292.03;;;24.45;49.16
54329;BME280;40710;51.120;13.136;2023-05-22T07:31:34;99279.47;;;26.68;42.98
54329;BME280;40710;51.120;13.136;2023-05-22T07:33:58;99285.03;;;26.07;43.41
54329;BME280;40710;51.120;13.136;2023-05-22T07:36:23;99251.91;;;29.20;41.92
54329;BME280;40710;51.120;13.136;2023-05-22T07:38:47;99294.69;;;25.01;49.01
54329;BME280;40710;51.120;13.136;2023-05-22T07:41:12;99285.50;;;25.50;46.29
54329;BME280;40710;51.120;13.136;2023-05-22T07:43:37;99240.84;;;32.82;33.22
54329;BME280;40710;51.120;13.136;2023-05-22T07:46:01;99292.56;;;25.89;44.73
54329;BME280;40710;51.120;13.136;2023-05-22T07:48:26;99292.91;;;25.47;46.14
54329;BME280;40710;51.120;13.136;2023-05-22T07:50:51;99291.09;;;25.40;46.19
54329;BME280;40710;51.120;13.136;2023-05-22T07:53:15;99292.53;;;25.51;46.32
54329;BME280;40710;51.120;13.136;2023-05-22T07:55:40;99271.06;;;28.29;41.80
54329;BME280;40710;51.120;13.136;2023-05-22T07:58:05;99280.19;;;26.47;44.05
54329;BME280;40710;51.120;13.136;2023-05-22T08:00:31;99281.81;;;27.08;43.04
54329;BME280;40710;51.120;13.136;2023-05-22T08:02:56;99256.97;;;29.44;41.00
54329;BME280;40710;51.120;13.136;2023-05-22T08:05:21;99283.84;;;26.54;44.91
54329;BME280;40710;51.120;13.136;2023-05-22T08:07:45;99271.44;;;27.26;42.63
54329;BME280;40710;51.120;13.136;2023-05-22T08:10:14;99267.22;;;27.39;42.84
54329;BME280;40710;51.120;13.136;2023-05-22T08:12:39;99275.78;;;27.06;44.00
54329;BME280;40710;51.120;13.136;2023-05-22T08:15:04;99226.81;;;30.52;36.96
54329;BME280;40710;51.120;13.136;2023-05-22T08:17:29;99237.28;;;31.00;35.83
54329;BME280;40710;51.120;13.136;2023-05-22T08:19:53;99237.41;;;30.73;36.29
54329;BME280;40710;51.120;13.136;2023-05-22T08:22:18;99238.97;;;30.88;36.24
54329;BME280;40710;51.120;13.136;2023-05-22T08:24:42;99245.25;;;30.23;37.19
54329;BME280;40710;51.120;13.136;2023-05-22T08:27:07;99244.00;;;29.26;38.98
54329;BME280;40710;51.120;13.136;2023-05-22T08:29:31;99254.41;;;29.15;42.50
54329;BME280;40710;51.120;13.136;2023-05-22T08:31:56;99241.19;;;28.85;38.59
54329;BME280;40710;51.120;13.136;2023-05-22T08:34:21;99243.41;;;28.62;40.04
54329;BME280;40710;51.120;13.136;2023-05-22T08:36:46;99245.38;;;28.88;38.94
54329;BME280;40710;51.120;13.136;2023-05-22T08:39:12;99235.72;;;29.94;36.56
54329;BME280;40710;51.120;13.136;2023-05-22T08:41:37;99236.75;;;28.23;39.12
54329;BME280;40710;51.120;13.136;2023-05-22T08:44:02;99242.28;;;28.15;39.14
54329;BME280;40710;51.120;13.136;2023-05-22T08:46:27;99247.56;;;28.23;39.37
54329;BME280;40710;51.120;13.136;2023-05-22T08:48:57;99240.59;;;28.48;38.45
54329;BME280;40710;51.120;13.136;2023-05-22T08:51:27;99219.28;;;29.42;37.04
54329;BME280;40710;51.120;13.136;2023-05-22T08:53:55;99227.78;;;30.06;36.75
54329;BME280;40710;51.120;13.136;2023-05-22T08:56:20;99238.94;;;29.02;38.98
54329;BME280;40710;51.120;13.136;2023-05-22T08:58:45;99223.66;;;29.83;36.71
54329;BME280;40710;51.120;13.136;2023-05-22T09:01:11;99228.53;;;30.33;35.94
54329;BME280;40710;51.120;13.136;2023-05-22T09:03:37;99227.38;;;29.69;36.18
54329;BME280;40710;51.120;13.136;2023-05-22T09:06:02;99224.06;;;29.67;36.05
54329;BME280;40710;51.120;13.136;2023-05-22T09:08:27;99215.72;;;29.82;34.58
54329;BME280;40710;51.120;13.136;2023-05-22T09:10:54;99223.59;;;29.16;36.42
54329;BME280;40710;51.120;13.136;2023-05-22T09:13:27;99218.22;;;29.30;35.00
54329;BME280;40710;51.120;13.136;2023-05-22T09:15:57;99223.53;;;29.03;36.15
54329;BME280;40710;51.120;13.136;2023-05-22T09:18:26;99218.97;;;28.97;35.80
54329;BME280;40710;51.120;13.136;2023-05-22T09:20:50;99224.78;;;29.00;36.62
54329;BME280;40710;51.120;13.136;2023-05-22T09:23:15;99217.81;;;29.93;35.06
54329;BME280;40710;51.120;13.136;2023-05-22T09:25:43;99220.72;;;29.51;35.71
54329;BME280;40710;51.120;13.136;2023-05-22T09:28:12;99219.25;;;29.62;36.08
54329;BME280;40710;51.120;13.136;2023-05-22T09:30:36;99215.50;;;29.70;35.40
54329;BME280;40710;51.120;13.136;2023-05-22T09:33:02;99222.78;;;29.36;35.92
54329;BME280;40710;51.120;13.136;2023-05-22T09:35:30;99223.84;;;29.62;35.96
54329;BME280;40710;51.120;13.136;2023-05-22T09:37:54;99215.94;;;29.53;36.11
54329;BME280;40710;51.120;13.136;2023-05-22T09:40:20;99234.97;;;27.80;38.93
54329;BME280;40710;51.120;13.136;2023-05-22T09:42:45;99227.44;;;28.74;37.80
54329;BME280;40710;51.120;13.136;2023-05-22T09:45:09;99228.63;;;28.58;38.54
54329;BME280;40710;51.120;13.136;2023-05-22T09:47:34;99219.03;;;29.97;36.97
54329;BME280;40710;51.120;13.136;2023-05-22T09:50:01;99215.31;;;29.78;36.57
54329;BME280;40710;51.120;13.136;2023-05-22T09:52:27;99187.00;;;32.35;32.66
54329;BME280;40710;51.120;13.136;2023-05-22T09:54:54;99179.66;;;35.19;29.83
54329;BME280;40710;51.120;13.136;2023-05-22T09:57:21;99196.78;;;34.57;29.88
54329;BME280;40710;51.120;13.136;2023-05-22T09:59:50;99221.16;;;32.31;32.52
54329;BME280;40710;51.120;13.136;2023-05-22T10:02:22;99198.94;;;33.91;28.89
54329;BME280;40710;51.120;13.136;2023-05-22T10:04:48;99216.88;;;31.48;32.52
54329;BME280;40710;51.120;13.136;2023-05-22T10:07:16;99185.22;;;35.58;28.06
54329;BME280;40710;51.120;13.136;2023-05-22T10:09:44;99217.03;;;33.08;31.93
54329;BME280;40710;51.120;13.136;2023-05-22T10:12:12;99201.88;;;32.51;31.76
54329;BME280;40710;51.120;13.136;2023-05-22T10:14:39;99175.63;;;36.56;26.32
54329;BME280;40710;51.120;13.136;2023-05-22T10:17:04;99193.91;;;34.12;29.38
54329;BME280;40710;51.120;13.136;2023-05-22T10:19:30;99199.03;;;33.07;31.76
54329;BME280;40710;51.120;13.136;2023-05-22T10:21:59;99203.06;;;32.00;32.41
54329;BME280;40710;51.120;13.136;2023-05-22T10:24:24;99195.00;;;31.43;32.64
54329;BME280;40710;51.120;13.136;2023-05-22T10:26:49;99197.75;;;31.87;33.82
54329;BME280;40710;51.120;13.136;2023-05-22T10:29:23;99177.72;;;33.04;30.45
54329;BME280;40710;51.120;13.136;2023-05-22T10:31:59;99189.72;;;32.17;31.02
54329;BME280;40710;51.120;13.136;2023-05-22T10:34:42;99191.97;;;31.01;32.97
54329;BME280;40710;51.120;13.136;2023-05-22T10:37:34;99160.78;;;35.86;26.72
54329;BME280;40710;51.120;13.136;2023-05-22T10:40:04;99183.41;;;32.53;30.59
54329;BME280;40710;51.120;13.136;2023-05-22T10:42:31;99179.13;;;32.64;31.14
54329;BME280;40710;51.120;13.136;2023-05-22T10:44:59;99155.44;;;35.40;27.47
54329;BME280;40710;51.120;13.136;2023-05-22T10:47:25;99150.03;;;37.27;25.76
54329;BME280;40710;51.120;13.136;2023-05-22T10:50:10;99162.47;;;33.68;27.69
54329;BME280;40710;51.120;13.136;2023-05-22T10:52:35;99170.53;;;32.49;29.07
54329;BME280;40710;51.120;13.136;2023-05-22T10:55:00;99156.84;;;32.86;27.80
54329;BME280;40710;51.120;13.136;2023-05-22T10:57:26;99160.63;;;33.98;28.22
54329;BME280;40710;51.120;13.136;2023-05-22T11:00:08;99166.78;;;31.69;30.68
54329;BME280;40710;51.120;13.136;2023-05-22T11:02:41;99152.81;;;33.30;28.42
54329;BME280;40710;51.120;13.136;2023-05-22T11:07:39;99144.19;;;33.81;27.95
54329;BME280;40710;51.120;13.136;2023-05-22T11:10:03;99151.28;;;32.92;29.28
54329;BME280;40710;51.120;13.136;2023-05-22T11:12:29;99148.31;;;34.07;26.65
54329;BME280;40710;51.120;13.136;2023-05-22T11:15:00;99134.28;;;34.56;26.21
54329;BME280;40710;51.120;13.136;2023-05-22T11:17:27;99130.34;;;35.09;25.52
54329;BME280;40710;51.120;13.136;2023-05-22T11:19:57;99153.06;;;33.88;28.02
54329;BME280;40710;51.120;13.136;2023-05-22T11:22:29;99136.06;;;34.50;26.56
54329;BME280;40710;51.120;13.136;2023-05-22T11:24:53;99117.94;;;35.91;25.55
54329;BME280;40710;51.120;13.136;2023-05-22T11:27:19;99121.97;;;35.50;25.23
54329;BME280;40710;51.120;13.136;2023-05-22T11:29:43;99126.44;;;35.05;26.17
54329;BME280;40710;51.120;13.136;2023-05-22T11:32:09;99127.81;;;34.74;25.47
54329;BME280;40710;51.120;13.136;2023-05-22T11:34:38;99135.03;;;34.22;28.27
54329;BME280;40710;51.120;13.136;2023-05-22T11:37:03;99131.72;;;33.26;28.18
54329;BME280;40710;51.120;13.136;2023-05-22T11:39:27;99119.66;;;34.91;26.31
54329;BME280;40710;51.120;13.136;2023-05-22T11:41:52;99133.25;;;34.04;26.68
54329;BME280;40710;51.120;13.136;2023-05-22T11:44:16;99107.66;;;35.43;25.57
54329;BME280;40710;51.120;13.136;2023-05-22T11:46:41;99125.25;;;32.54;28.46
54329;BME280;40710;51.120;13.136;2023-05-22T11:49:08;99114.56;;;33.61;26.83
54329;BME280;40710;51.120;13.136;2023-05-22T11:51:33;99109.19;;;34.01;26.11
54329;BME280;40710;51.120;13.136;2023-05-22T11:53:58;99096.81;;;34.97;24.91
54329;BME280;40710;51.120;13.136;2023-05-22T11:56:22;99117.53;;;33.83;26.31
54329;BME280;40710;51.120;13.136;2023-05-22T11:58:48;99113.31;;;32.86;27.75
54329;BME280;40710;51.120;13.136;2023-05-22T12:01:12;99092.66;;;35.11;25.31
54329;BME280;40710;51.120;13.136;2023-05-22T12:03:37;99086.81;;;35.97;23.95
54329;BME280;40710;51.120;13.136;2023-05-22T12:06:02;99101.03;;;34.88;24.59
54329;BME280;40710;51.120;13.136;2023-05-22T12:08:27;99096.22;;;34.20;26.14
54329;BME280;40710;51.120;13.136;2023-05-22T12:10:53;99082.50;;;35.24;23.23
54329;BME280;40710;51.120;13.136;2023-05-22T12:13:24;99088.72;;;35.02;24.27
54329;BME280;40710;51.120;13.136;2023-05-22T12:15:52;99090.31;;;34.69;24.32
54329;BME280;40710;51.120;13.136;2023-05-22T12:18:17;99087.03;;;34.38;24.42
54329;BME280;40710;51.120;13.136;2023-05-22T12:20:42;99096.38;;;34.02;25.23
54329;BME280;40710;51.120;13.136;2023-05-22T12:23:22;99077.94;;;35.12;23.40
54329;BME280;40710;51.120;13.136;2023-05-22T12:25:55;99076.22;;;34.60;23.39
54329;BME280;40710;51.120;13.136;2023-05-22T12:28:20;99085.69;;;33.71;23.47
54329;BME280;40710;51.120;13.136;2023-05-22T12:30:45;99092.41;;;33.22;26.29
54329;BME280;40710;51.120;13.136;2023-05-22T12:33:12;99079.25;;;34.30;23.08
54329;BME280;40710;51.120;13.136;2023-05-22T12:35:38;99077.41;;;33.66;23.38
54329;BME280;40710;51.120;13.136;2023-05-22T12:38:02;99090.88;;;33.26;25.86
54329;BME280;40710;51.120;13.136;2023-05-22T12:40:27;99088.03;;;33.56;25.46
54329;BME280;40710;51.120;13.136;2023-05-22T12:42:51;99089.78;;;33.62;26.21
54329;BME280;40710;51.120;13.136;2023-05-22T12:45:16;99085.19;;;34.15;25.32
54329;BME280;40710;51.120;13.136;2023-05-22T12:47:41;99085.66;;;34.24;24.80
54329;BME280;40710;51.120;13.136;2023-05-22T12:50:06;99083.19;;;34.10;24.76
54329;BME280;40710;51.120;13.136;2023-05-22T12:52:30;99075.19;;;34.33;25.22
54329;BME280;40710;51.120;13.136;2023-05-22T12:54:55;99069.31;;;34.70;24.02
54329;BME280;40710;51.120;13.136;2023-05-22T12:57:19;99059.22;;;35.99;22.74